Getzville 2E NY

43° 01' 25"N, 78° 44' 55"W, Elevation 589 ft.
Eastern Time

Hourly observations for the last 72 hours

Date Time Temperature (°F) Humi-
dity

(%)
Wind
(mph)
Pressure Rain (in) Sun
(W/m2)
ET
(in)
Air Dew 6 Hour 1 Hr 3 Hr 6 Hr Day
Alt
(in)
Sea
Level

(mb)
Max Min
17 07:00 39.5 37.9 94 NNW 0 G 3 29.85 1011.0 0.00 19 0.000
17 06:00 39.6 38.0 94 W 0 G 3 29.84 1010.5 0.00 0 0.000
17 05:00 39.3 37.4 93 Calm 29.84 1010.6 0.00 0 0.000
17 04:00 40.5 38.6 93 WNW 0 G 2 29.85 1010.8 0.00 0 0.000
17 03:00 40.5 38.6 93 WNW 0 G 2 29.84 1010.6 0.00 0 0.000
17 02:00 40.4 38.5 42.1 40.4 93 NW 1 G 4 29.84 1010.6 0.01 0.05 0.00 0 0.000
17 01:00 40.5 38.6 93 NW 1 G 6 29.84 1010.6 0.00 0 0.000
17 00:00 40.6 38.7 93 WNW 1 G 6 29.84 1010.6 0.01 0.20 0 0.027
16 23:00 40.4 38.3 92 WNW 1 G 3 29.84 1010.7 0.02 0.04 0.18 0 0.027
16 22:00 40.7 38.6 92 WNW 3 G 7 29.84 1010.6 0.02 0.16 0 0.027
16 21:00 41.1 38.4 90 NW 2 G 10 29.84 1010.5 0.14 0 0.027
16 20:00 42.1 38.8 45.3 42.1 88 NW 3 G 7 29.81 1009.7 0.02 0.02 0.14 0 0.027
16 19:00 43.6 39.1 84 NW 5 G 12 29.79 1008.8 0.14 12 0.026
16 18:00 43.3 40.0 88 W 0 G 2 29.77 1008.3 0.02 0.14 33 0.025
16 17:00 44.1 39.0 82 WSW 2 G 4 29.75 1007.6 0.12 51 0.024
16 16:00 45.0 38.2 77 SW 3 G 8 29.74 1007.3 0.12 69 0.022
16 15:00 45.0 38.2 77 W 3 G 11 29.75 1007.4 0.12 104 0.019
16 14:00 44.7 37.9 44.9 38.9 77 WNW 6 G 13 29.74 1007.2 0.12 186 0.015
16 13:00 44.5 38.1 78 WNW 7 G 14 29.73 1006.9 0.12 279 0.011
16 12:00 42.9 37.8 82 WNW 4 G 8 29.74 1007.2 0.12 204 0.007
16 11:00 41.1 36.6 84 WNW 4 G 14 29.75 1007.3 0.12 100 0.005
16 10:00 40.7 36.5 85 W 7 G 14 29.74 1007.0 0.12 90 0.003
16 09:00 39.6 36.3 88 WNW 7 G 14 29.73 1006.8 0.12 128 0.001
16 08:00 38.9 36.5 39.2 38.2 91 W 5 G 13 29.73 1006.7 0.03 0.12 56 0.000
16 07:00 38.5 36.4 92 W 3 G 11 29.73 1006.8 0.12 5 0.000
16 06:00 38.3 36.2 92 W 5 G 10 29.72 1006.5 0.12 0 0.000
16 05:00 38.4 36.3 92 W 5 G 10 29.73 1006.7 0.03 0.12 0 0.000
16 04:00 39.0 37.1 93 W 6 G 13 29.73 1006.8 0.01 0.12 0 0.000
16 03:00 39.1 37.2 93 W 4 G 11 29.73 1006.7 0.02 0.11 0 0.000
16 02:00 38.2 36.1 39.2 37.8 92 W 3 G 7 29.74 1007.0 0.06 0.12 0.16 0.09 0 0.000
16 01:00 37.9 35.5 91 WNW 4 G 11 29.74 1007.2 0.04 0.03 0 0.000
16 00:00 39.0 36.9 92 W 3 G 9 29.74 1007.2 0.02 0.29 0 0.033
15 23:00 38.9 36.5 91 W 4 G 9 29.75 1007.6 0.03 0.04 0.27 0 0.033
15 22:00 38.2 35.2 89 W 2 G 3 29.77 1008.3 0.01 0.24 0 0.033
15 21:00 39.1 35.6 87 SW 2 G 6 29.79 1008.8 0.23 0 0.033
15 20:00 39.0 35.2 42.8 37.9 86 WSW 2 G 6 29.79 1008.7 0.06 0.23 0 0.033
15 19:00 39.8 36.0 86 W 4 G 10 29.79 1008.9 0.23 40 0.032
15 18:00 40.5 36.1 84 WSW 4 G 10 29.78 1008.6 0.23 120 0.029
15 17:00 40.6 36.4 85 W 6 G 12 29.78 1008.7 0.01 0.06 0.23 251 0.026
15 16:00 38.4 35.2 88 WNW 3 G 5 29.78 1008.6 0.05 0.22 139 0.024
15 15:00 42.5 34.8 74 WSW 2 G 11 29.78 1008.4 0.17 141 0.020
15 14:00 41.7 33.0 43.8 40.2 71 W 2 G 8 29.78 1008.5 0.17 81 0.018
15 13:00 42.0 34.0 73 WNW 3 G 9 29.79 1008.7 0.17 102 0.015
15 12:00 42.5 34.5 73 W 4 G 14 29.80 1009.0 0.17 160 0.012
15 11:00 42.8 36.1 77 NW 3 G 12 29.80 1009.2 0.17 302 0.007
15 10:00 42.4 38.8 87 NW 3 G 10 29.81 1009.4 0.17 281 0.003
15 09:00 40.5 38.1 91 WNW 2 G 4 29.81 1009.6 0.17 142 0.002
15 08:00 40.3 37.9 44.7 40.3 91 NW 3 G 9 29.82 1009.7 0.02 0.08 0.17 0.17 25 0.002
15 07:00 41.2 38.8 91 NNW 1 G 3 29.81 1009.4 0.02 0.15 0 0.002
15 06:00 41.1 38.7 91 NNW 0 G 1 29.80 1009.1 0.04 0.13 0 0.002
15 05:00 41.3 38.6 90 NNW 0 G 3 29.82 1009.7 0.04 0.09 0.09 0 0.002
15 04:00 42.1 38.8 88 NNW 1 G 4 29.83 1010.0 0.04 0.05 0 0.002
15 03:00 44.0 38.9 82 NW 4 G 6 29.83 1010.2 0.01 0.01 0 0.001
15 02:00 44.4 38.3 48.8 41.9 79 WNW 1 G 4 29.84 1010.6 0.00 0 0.000
15 01:00 43.7 37.6 79 Calm 29.85 1010.7 0.00 0 0.000
15 00:00 43.1 37.4 80 SW 0 G 2 29.85 1010.8 0.00 0 0.013
14 23:00 42.2 37.1 82 SW 0 G 1 29.86 1011.3 0.00 0 0.013
14 22:00 42.7 36.6 79 SW 1 G 3 29.88 1012.0 0.00 0 0.012
14 21:00 45.0 36.5 72 SW 0 G 2 29.90 1012.5 0.00 0 0.012
14 20:00 48.8 36.0 55.9 48.8 61 WSW 0 G 3 29.90 1012.5 0.00 0 0.011
14 19:00 55.4 33.9 44 W 3 G 13 29.90 1012.4 0.00 83 0.008
14 18:00 55.5 36.7 49 WSW 3 G 9 29.91 1012.8 0.00 77 0.005
14 17:00 51.4 42.3 71 SW 2 G 11 29.92 1013.2 0.00 178 0.005
14 16:00 51.4 42.3 71 WSW 4 G 17 29.93 1013.7 0.00 178 0.005
14 15:00 51.4 42.3 71 SW 4 G 16 29.96 1014.5 0.00 178 0.005
14 14:00 51.4 42.3 51.8 0.0 71 W 5 G 10 29.98 1015.3 0.00 178 0.005
14 13:00 51.4 42.3 71 SW 3 G 7 30.00 1016.0 0.00 178 0.005
14 12:00 51.4 42.3 71 SW 4 G 10 30.02 1016.5 0.00 178 0.005
14 11:00 51.4 42.3 71 SSW 4 G 8 30.02 1016.7 0.00 178 0.005
14 10:00 51.5 42.0 70 W 4 G 8 30.02 1016.7 0.00 174 0.000
14 09:00 0.0 -79.1 0 SSW 4 G 8 30.02 1016.8 0.00 0 0.000
14 08:00 0.0 -79.1 0.0 0.0 0 WSW 0 G 3 30.03 1017.1 0.00 0 0.000

Data generated by WxSolution Version 1.9.1.5, Build 2018.05.20.